sensor_id;sensor_type;location;lat;lon;timestamp;P1;durP1;ratioP1;P2;durP2;ratioP2
41167;SDS011;26906;45.658;9.272;2023-06-22T05:36:04;9.07;;;5.60;;
41167;SDS011;26906;45.658;9.272;2023-06-22T05:38:30;7.38;;;5.68;;
41167;SDS011;26906;45.658;9.272;2023-06-22T05:40:56;13.43;;;7.32;;
41167;SDS011;26906;45.658;9.272;2023-06-22T05:43:22;13.98;;;8.80;;
41167;SDS011;26906;45.658;9.272;2023-06-22T05:45:47;15.73;;;7.97;;
41167;SDS011;26906;45.658;9.272;2023-06-22T05:48:13;13.10;;;8.18;;
41167;SDS011;26906;45.658;9.272;2023-06-22T05:50:39;18.98;;;8.50;;
41167;SDS011;26906;45.658;9.272;2023-06-22T05:53:04;13.70;;;8.55;;
41167;SDS011;26906;45.658;9.272;2023-06-22T05:55:32;12.82;;;7.82;;
41167;SDS011;26906;45.658;9.272;2023-06-22T05:57:57;14.65;;;7.70;;
41167;SDS011;26906;45.658;9.272;2023-06-22T06:00:23;14.02;;;8.18;;
41167;SDS011;26906;45.658;9.272;2023-06-22T06:02:49;13.00;;;8.35;;
41167;SDS011;26906;45.658;9.272;2023-06-22T06:05:15;13.70;;;8.48;;
41167;SDS011;26906;45.658;9.272;2023-06-22T06:07:41;14.10;;;8.38;;
41167;SDS011;26906;45.658;9.272;2023-06-22T06:10:08;14.00;;;7.97;;
41167;SDS011;26906;45.658;9.272;2023-06-22T06:12:34;16.90;;;8.35;;
41167;SDS011;26906;45.658;9.272;2023-06-22T06:15:01;14.00;;;8.18;;
41167;SDS011;26906;45.658;9.272;2023-06-22T06:17:27;14.80;;;8.60;;
41167;SDS011;26906;45.658;9.272;2023-06-22T06:19:52;16.40;;;9.02;;
41167;SDS011;26906;45.658;9.272;2023-06-22T06:22:18;14.35;;;8.68;;
41167;SDS011;26906;45.658;9.272;2023-06-22T06:24:46;16.73;;;8.13;;
41167;SDS011;26906;45.658;9.272;2023-06-22T06:27:12;16.20;;;8.02;;
41167;SDS011;26906;45.658;9.272;2023-06-22T06:29:38;16.13;;;8.65;;
41167;SDS011;26906;45.658;9.272;2023-06-22T06:32:04;12.23;;;8.13;;
41167;SDS011;26906;45.658;9.272;2023-06-22T06:34:30;11.43;;;8.32;;
41167;SDS011;26906;45.658;9.272;2023-06-22T06:36:56;13.77;;;8.18;;
41167;SDS011;26906;45.658;9.272;2023-06-22T06:39:22;15.15;;;8.25;;
41167;SDS011;26906;45.658;9.272;2023-06-22T06:41:49;11.43;;;8.05;;
41167;SDS011;26906;45.658;9.272;2023-06-22T06:44:14;14.10;;;8.40;;
41167;SDS011;26906;45.658;9.272;2023-06-22T06:46:40;12.27;;;8.30;;
41167;SDS011;26906;45.658;9.272;2023-06-22T06:49:07;13.70;;;8.63;;
41167;SDS011;26906;45.658;9.272;2023-06-22T06:51:34;14.88;;;8.82;;
41167;SDS011;26906;45.658;9.272;2023-06-22T06:53:59;18.30;;;8.43;;
41167;SDS011;26906;45.658;9.272;2023-06-22T06:56:25;13.90;;;8.25;;
41167;SDS011;26906;45.658;9.272;2023-06-22T06:58:51;14.65;;;7.80;;
41167;SDS011;26906;45.658;9.272;2023-06-22T07:01:17;14.70;;;7.72;;
41167;SDS011;26906;45.658;9.272;2023-06-22T07:03:42;12.57;;;8.60;;
41167;SDS011;26906;45.658;9.272;2023-06-22T07:06:08;13.65;;;8.65;;
41167;SDS011;26906;45.658;9.272;2023-06-22T07:08:34;9.23;;;6.97;;
41167;SDS011;26906;45.658;9.272;2023-06-22T07:11:01;18.83;;;8.77;;
41167;SDS011;26906;45.658;9.272;2023-06-22T07:13:27;16.15;;;8.85;;
41167;SDS011;26906;45.658;9.272;2023-06-22T07:15:53;18.58;;;7.70;;
41167;SDS011;26906;45.658;9.272;2023-06-22T07:18:19;17.95;;;8.18;;
41167;SDS011;26906;45.658;9.272;2023-06-22T07:20:44;14.48;;;7.88;;
41167;SDS011;26906;45.658;9.272;2023-06-22T07:23:10;14.20;;;7.18;;
41167;SDS011;26906;45.658;9.272;2023-06-22T07:25:35;12.75;;;7.50;;
41167;SDS011;26906;45.658;9.272;2023-06-22T07:28:05;12.82;;;7.18;;
41167;SDS011;26906;45.658;9.272;2023-06-22T07:30:32;10.38;;;6.40;;
41167;SDS011;26906;45.658;9.272;2023-06-22T07:32:58;12.00;;;6.75;;
41167;SDS011;26906;45.658;9.272;2023-06-22T07:35:31;12.20;;;7.07;;
41167;SDS011;26906;45.658;9.272;2023-06-22T07:37:59;14.25;;;7.25;;
41167;SDS011;26906;45.658;9.272;2023-06-22T07:40:25;12.82;;;6.43;;
41167;SDS011;26906;45.658;9.272;2023-06-22T07:42:51;11.20;;;6.65;;
41167;SDS011;26906;45.658;9.272;2023-06-22T07:45:18;13.88;;;7.85;;
41167;SDS011;26906;45.658;9.272;2023-06-22T07:47:44;18.75;;;7.20;;
41167;SDS011;26906;45.658;9.272;2023-06-22T07:50:09;8.88;;;6.53;;
41167;SDS011;26906;45.658;9.272;2023-06-22T07:52:35;19.90;;;7.15;;
41167;SDS011;26906;45.658;9.272;2023-06-22T07:55:01;12.68;;;7.00;;
41167;SDS011;26906;45.658;9.272;2023-06-22T07:57:27;10.95;;;6.38;;
41167;SDS011;26906;45.658;9.272;2023-06-22T08:00:01;11.63;;;6.63;;
41167;SDS011;26906;45.658;9.272;2023-06-22T08:02:37;13.95;;;7.00;;
41167;SDS011;26906;45.658;9.272;2023-06-22T08:05:04;16.23;;;6.68;;
41167;SDS011;26906;45.658;9.272;2023-06-22T08:07:32;11.93;;;6.88;;
41167;SDS011;26906;45.658;9.272;2023-06-22T08:09:58;10.05;;;6.40;;
41167;SDS011;26906;45.658;9.272;2023-06-22T08:12:24;12.25;;;6.45;;
41167;SDS011;26906;45.658;9.272;2023-06-22T08:14:49;17.42;;;7.03;;
41167;SDS011;26906;45.658;9.272;2023-06-22T08:17:15;14.93;;;6.97;;
41167;SDS011;26906;45.658;9.272;2023-06-22T08:19:41;12.52;;;6.80;;
41167;SDS011;26906;45.658;9.272;2023-06-22T08:22:06;14.80;;;6.65;;
41167;SDS011;26906;45.658;9.272;2023-06-22T08:24:32;11.65;;;6.85;;
41167;SDS011;26906;45.658;9.272;2023-06-22T08:26:58;10.27;;;6.63;;
41167;SDS011;26906;45.658;9.272;2023-06-22T08:29:24;15.57;;;7.72;;
41167;SDS011;26906;45.658;9.272;2023-06-22T08:31:49;14.25;;;6.97;;
41167;SDS011;26906;45.658;9.272;2023-06-22T08:34:15;21.00;;;7.82;;
41167;SDS011;26906;45.658;9.272;2023-06-22T08:36:41;11.95;;;6.32;;
41167;SDS011;26906;45.658;9.272;2023-06-22T08:39:09;11.95;;;6.65;;
41167;SDS011;26906;45.658;9.272;2023-06-22T08:41:35;13.32;;;6.40;;
41167;SDS011;26906;45.658;9.272;2023-06-22T08:44:01;11.20;;;5.28;;
41167;SDS011;26906;45.658;9.272;2023-06-22T08:46:27;11.10;;;5.68;;
41167;SDS011;26906;45.658;9.272;2023-06-22T08:48:58;11.02;;;5.88;;
41167;SDS011;26906;45.658;9.272;2023-06-22T08:51:24;10.85;;;5.53;;
41167;SDS011;26906;45.658;9.272;2023-06-22T08:53:50;11.93;;;5.50;;
41167;SDS011;26906;45.658;9.272;2023-06-22T08:56:15;14.18;;;5.88;;
41167;SDS011;26906;45.658;9.272;2023-06-22T08:58:41;11.63;;;5.65;;
41167;SDS011;26906;45.658;9.272;2023-06-22T09:01:07;7.57;;;5.72;;
41167;SDS011;26906;45.658;9.272;2023-06-22T09:03:32;10.60;;;6.13;;
41167;SDS011;26906;45.658;9.272;2023-06-22T09:06:01;9.98;;;5.65;;
41167;SDS011;26906;45.658;9.272;2023-06-22T09:08:27;15.15;;;5.43;;
41167;SDS011;26906;45.658;9.272;2023-06-22T09:10:52;14.25;;;6.13;;
41167;SDS011;26906;45.658;9.272;2023-06-22T09:13:18;12.82;;;6.15;;
41167;SDS011;26906;45.658;9.272;2023-06-22T09:15:44;15.43;;;6.00;;
41167;SDS011;26906;45.658;9.272;2023-06-22T09:18:10;16.15;;;5.72;;
41167;SDS011;26906;45.658;9.272;2023-06-22T09:20:36;12.15;;;6.00;;
41167;SDS011;26906;45.658;9.272;2023-06-22T09:23:02;9.95;;;5.90;;
41167;SDS011;26906;45.658;9.272;2023-06-22T09:25:28;14.23;;;6.13;;
41167;SDS011;26906;45.658;9.272;2023-06-22T09:27:53;13.43;;;6.07;;
41167;SDS011;26906;45.658;9.272;2023-06-22T09:30:19;13.82;;;6.07;;
41167;SDS011;26906;45.658;9.272;2023-06-22T09:32:45;12.18;;;6.13;;
41167;SDS011;26906;45.658;9.272;2023-06-22T09:35:11;14.98;;;6.25;;
41167;SDS011;26906;45.658;9.272;2023-06-22T09:37:38;17.38;;;6.60;;
41167;SDS011;26906;45.658;9.272;2023-06-22T09:40:05;11.57;;;6.53;;
41167;SDS011;26906;45.658;9.272;2023-06-22T09:42:36;12.27;;;6.75;;
41167;SDS011;26906;45.658;9.272;2023-06-22T09:45:02;12.02;;;6.88;;
41167;SDS011;26906;45.658;9.272;2023-06-22T09:47:29;13.98;;;7.38;;
41167;SDS011;26906;45.658;9.272;2023-06-22T09:49:55;11.25;;;6.22;;
41167;SDS011;26906;45.658;9.272;2023-06-22T09:52:21;14.57;;;6.78;;
41167;SDS011;26906;45.658;9.272;2023-06-22T09:54:47;12.93;;;6.30;;
41167;SDS011;26906;45.658;9.272;2023-06-22T09:57:13;11.18;;;6.10;;
41167;SDS011;26906;45.658;9.272;2023-06-22T09:59:38;10.50;;;5.18;;
41167;SDS011;26906;45.658;9.272;2023-06-22T10:02:07;11.18;;;5.47;;
41167;SDS011;26906;45.658;9.272;2023-06-22T10:04:33;12.00;;;5.93;;
41167;SDS011;26906;45.658;9.272;2023-06-22T10:07:00;11.32;;;6.45;;
41167;SDS011;26906;45.658;9.272;2023-06-22T10:09:26;12.23;;;5.82;;
41167;SDS011;26906;45.658;9.272;2023-06-22T10:11:52;9.93;;;6.00;;
41167;SDS011;26906;45.658;9.272;2023-06-22T10:14:17;11.13;;;6.13;;
41167;SDS011;26906;45.658;9.272;2023-06-22T10:16:43;22.63;;;6.43;;
41167;SDS011;26906;45.658;9.272;2023-06-22T10:19:09;12.55;;;5.57;;
41167;SDS011;26906;45.658;9.272;2023-06-22T10:21:35;13.77;;;5.53;;
41167;SDS011;26906;45.658;9.272;2023-06-22T10:24:01;11.48;;;5.40;;
41167;SDS011;26906;45.658;9.272;2023-06-22T10:26:33;13.70;;;5.97;;
41167;SDS011;26906;45.658;9.272;2023-06-22T10:29:00;12.85;;;5.57;;
41167;SDS011;26906;45.658;9.272;2023-06-22T10:31:27;10.18;;;5.93;;
41167;SDS011;26906;45.658;9.272;2023-06-22T10:33:53;14.52;;;6.07;;
41167;SDS011;26906;45.658;9.272;2023-06-22T10:36:19;14.18;;;6.05;;
41167;SDS011;26906;45.658;9.272;2023-06-22T10:38:44;11.48;;;6.18;;
41167;SDS011;26906;45.658;9.272;2023-06-22T10:41:12;14.95;;;6.05;;
41167;SDS011;26906;45.658;9.272;2023-06-22T10:43:38;14.60;;;5.90;;
41167;SDS011;26906;45.658;9.272;2023-06-22T10:46:03;9.35;;;5.55;;
41167;SDS011;26906;45.658;9.272;2023-06-22T10:48:29;12.63;;;5.80;;
41167;SDS011;26906;45.658;9.272;2023-06-22T10:50:55;11.13;;;5.82;;
41167;SDS011;26906;45.658;9.272;2023-06-22T10:53:21;12.55;;;6.72;;
41167;SDS011;26906;45.658;9.272;2023-06-22T10:55:46;11.23;;;6.47;;
41167;SDS011;26906;45.658;9.272;2023-06-22T10:58:13;10.10;;;5.72;;
41167;SDS011;26906;45.658;9.272;2023-06-22T11:00:38;13.48;;;5.88;;
41167;SDS011;26906;45.658;9.272;2023-06-22T11:03:04;12.15;;;5.97;;
41167;SDS011;26906;45.658;9.272;2023-06-22T11:05:30;10.60;;;5.60;;
41167;SDS011;26906;45.658;9.272;2023-06-22T11:07:57;11.80;;;5.70;;
41167;SDS011;26906;45.658;9.272;2023-06-22T11:10:22;16.10;;;6.45;;
41167;SDS011;26906;45.658;9.272;2023-06-22T11:12:48;12.10;;;5.43;;
41167;SDS011;26906;45.658;9.272;2023-06-22T11:15:14;8.38;;;5.28;;
41167;SDS011;26906;45.658;9.272;2023-06-22T11:17:39;13.73;;;5.88;;
41167;SDS011;26906;45.658;9.272;2023-06-22T11:20:05;13.35;;;5.72;;
41167;SDS011;26906;45.658;9.272;2023-06-22T11:22:38;11.55;;;5.40;;
41167;SDS011;26906;45.658;9.272;2023-06-22T11:25:05;15.45;;;5.90;;
41167;SDS011;26906;45.658;9.272;2023-06-22T11:27:32;12.55;;;5.25;;
41167;SDS011;26906;45.658;9.272;2023-06-22T11:29:57;10.75;;;5.03;;
41167;SDS011;26906;45.658;9.272;2023-06-22T11:32:23;12.10;;;5.03;;
41167;SDS011;26906;45.658;9.272;2023-06-22T11:34:49;8.48;;;5.03;;
41167;SDS011;26906;45.658;9.272;2023-06-22T11:37:15;9.25;;;5.32;;
41167;SDS011;26906;45.658;9.272;2023-06-22T11:39:41;12.88;;;5.07;;
41167;SDS011;26906;45.658;9.272;2023-06-22T11:42:08;9.80;;;5.32;;
41167;SDS011;26906;45.658;9.272;2023-06-22T11:44:36;12.18;;;5.65;;
41167;SDS011;26906;45.658;9.272;2023-06-22T11:47:02;12.50;;;6.05;;
41167;SDS011;26906;45.658;9.272;2023-06-22T11:49:29;14.15;;;6.03;;
41167;SDS011;26906;45.658;9.272;2023-06-22T11:51:55;10.73;;;5.45;;
41167;SDS011;26906;45.658;9.272;2023-06-22T11:54:21;12.23;;;5.70;;
41167;SDS011;26906;45.658;9.272;2023-06-22T11:56:47;11.20;;;5.57;;
41167;SDS011;26906;45.658;9.272;2023-06-22T11:59:13;12.30;;;5.70;;
41167;SDS011;26906;45.658;9.272;2023-06-22T12:01:41;12.48;;;5.68;;
41167;SDS011;26906;45.658;9.272;2023-06-22T12:04:07;15.38;;;5.82;;
41167;SDS011;26906;45.658;9.272;2023-06-22T12:06:32;9.85;;;5.75;;
41167;SDS011;26906;45.658;9.272;2023-06-22T12:08:58;10.57;;;6.10;;
41167;SDS011;26906;45.658;9.272;2023-06-22T12:11:24;13.82;;;5.65;;
41167;SDS011;26906;45.658;9.272;2023-06-22T12:13:50;9.27;;;5.63;;
41167;SDS011;26906;45.658;9.272;2023-06-22T12:16:15;10.52;;;5.75;;
41167;SDS011;26906;45.658;9.272;2023-06-22T12:18:41;11.77;;;5.88;;
41167;SDS011;26906;45.658;9.272;2023-06-22T12:21:07;12.00;;;5.80;;
41167;SDS011;26906;45.658;9.272;2023-06-22T12:23:32;12.55;;;6.43;;
41167;SDS011;26906;45.658;9.272;2023-06-22T12:25:59;11.05;;;5.50;;
41167;SDS011;26906;45.658;9.272;2023-06-22T12:28:26;11.07;;;5.55;;
41167;SDS011;26906;45.658;9.272;2023-06-22T12:30:52;21.08;;;6.43;;
41167;SDS011;26906;45.658;9.272;2023-06-22T12:33:18;12.32;;;5.97;;
41167;SDS011;26906;45.658;9.272;2023-06-22T12:35:43;10.35;;;5.78;;
41167;SDS011;26906;45.658;9.272;2023-06-22T12:38:10;10.10;;;5.82;;
41167;SDS011;26906;45.658;9.272;2023-06-22T12:40:36;15.52;;;7.78;;
41167;SDS011;26906;45.658;9.272;2023-06-22T12:43:01;11.80;;;6.05;;
41167;SDS011;26906;45.658;9.272;2023-06-22T12:45:27;14.32;;;6.03;;
41167;SDS011;26906;45.658;9.272;2023-06-22T12:47:56;13.90;;;5.45;;
41167;SDS011;26906;45.658;9.272;2023-06-22T12:50:22;9.45;;;4.82;;
41167;SDS011;26906;45.658;9.272;2023-06-22T12:52:48;8.32;;;4.65;;
41167;SDS011;26906;45.658;9.272;2023-06-22T12:55:13;13.98;;;5.43;;
41167;SDS011;26906;45.658;9.272;2023-06-22T12:57:41;12.93;;;4.97;;
41167;SDS011;26906;45.658;9.272;2023-06-22T13:00:11;12.50;;;5.57;;
41167;SDS011;26906;45.658;9.272;2023-06-22T13:02:37;10.80;;;5.22;;
41167;SDS011;26906;45.658;9.272;2023-06-22T13:05:03;13.50;;;5.40;;
41167;SDS011;26906;45.658;9.272;2023-06-22T13:07:30;9.60;;;5.22;;
41167;SDS011;26906;45.658;9.272;2023-06-22T13:09:55;14.30;;;5.03;;
41167;SDS011;26906;45.658;9.272;2023-06-22T13:12:21;11.65;;;5.63;;
41167;SDS011;26906;45.658;9.272;2023-06-22T13:14:47;12.07;;;4.97;;
41167;SDS011;26906;45.658;9.272;2023-06-22T13:17:13;13.27;;;5.28;;
41167;SDS011;26906;45.658;9.272;2023-06-22T13:19:39;10.25;;;5.45;;
41167;SDS011;26906;45.658;9.272;2023-06-22T13:22:05;9.00;;;5.15;;
41167;SDS011;26906;45.658;9.272;2023-06-22T13:24:50;9.20;;;4.97;;
41167;SDS011;26906;45.658;9.272;2023-06-22T13:27:15;10.52;;;5.15;;
41167;SDS011;26906;45.658;9.272;2023-06-22T13:29:41;10.18;;;5.22;;
41167;SDS011;26906;45.658;9.272;2023-06-22T13:32:07;10.65;;;5.50;;
41167;SDS011;26906;45.658;9.272;2023-06-22T13:34:33;7.90;;;5.22;;
41167;SDS011;26906;45.658;9.272;2023-06-22T13:36:58;10.38;;;5.13;;
41167;SDS011;26906;45.658;9.272;2023-06-22T13:39:24;16.98;;;5.40;;
41167;SDS011;26906;45.658;9.272;2023-06-22T13:41:50;8.80;;;4.57;;
41167;SDS011;26906;45.658;9.272;2023-06-22T13:44:15;10.60;;;5.80;;
41167;SDS011;26906;45.658;9.272;2023-06-22T13:46:41;14.32;;;5.40;;
41167;SDS011;26906;45.658;9.272;2023-06-22T13:49:07;13.95;;;6.47;;
41167;SDS011;26906;45.658;9.272;2023-06-22T13:51:33;13.00;;;6.10;;
41167;SDS011;26906;45.658;9.272;2023-06-22T13:53:58;9.48;;;5.60;;
41167;SDS011;26906;45.658;9.272;2023-06-22T13:56:24;18.30;;;5.88;;
41167;SDS011;26906;45.658;9.272;2023-06-22T13:58:50;12.43;;;5.97;;
41167;SDS011;26906;45.658;9.272;2023-06-22T14:01:15;9.40;;;5.45;;
41167;SDS011;26906;45.658;9.272;2023-06-22T14:03:41;17.92;;;5.97;;
41167;SDS011;26906;45.658;9.272;2023-06-22T14:06:07;17.45;;;7.05;;
41167;SDS011;26906;45.658;9.272;2023-06-22T14:08:35;14.40;;;6.25;;
41167;SDS011;26906;45.658;9.272;2023-06-22T14:11:01;15.73;;;6.60;;
41167;SDS011;26906;45.658;9.272;2023-06-22T14:13:27;9.55;;;5.68;;
41167;SDS011;26906;45.658;9.272;2023-06-22T14:15:52;11.60;;;6.53;;
41167;SDS011;26906;45.658;9.272;2023-06-22T14:18:19;14.80;;;6.40;;
41167;SDS011;26906;45.658;9.272;2023-06-22T14:20:44;13.20;;;6.75;;
41167;SDS011;26906;45.658;9.272;2023-06-22T14:23:12;9.00;;;6.10;;
41167;SDS011;26906;45.658;9.272;2023-06-22T14:25:38;10.07;;;6.38;;
41167;SDS011;26906;45.658;9.272;2023-06-22T14:28:04;11.68;;;6.72;;
41167;SDS011;26906;45.658;9.272;2023-06-22T14:30:30;11.80;;;6.10;;
41167;SDS011;26906;45.658;9.272;2023-06-22T14:32:56;10.68;;;6.22;;
41167;SDS011;26906;45.658;9.272;2023-06-22T14:35:21;15.18;;;6.38;;
41167;SDS011;26906;45.658;9.272;2023-06-22T14:37:47;13.70;;;6.13;;
41167;SDS011;26906;45.658;9.272;2023-06-22T14:40:14;9.38;;;6.15;;
41167;SDS011;26906;45.658;9.272;2023-06-22T14:42:40;12.35;;;6.72;;
41167;SDS011;26906;45.658;9.272;2023-06-22T14:45:05;10.75;;;5.60;;
41167;SDS011;26906;45.658;9.272;2023-06-22T14:47:33;14.32;;;6.22;;
41167;SDS011;26906;45.658;9.272;2023-06-22T14:50:00;12.90;;;6.00;;
41167;SDS011;26906;45.658;9.272;2023-06-22T14:52:26;10.57;;;6.38;;
41167;SDS011;26906;45.658;9.272;2023-06-22T14:54:52;12.68;;;6.65;;
41167;SDS011;26906;45.658;9.272;2023-06-22T14:57:18;13.52;;;6.22;;
41167;SDS011;26906;45.658;9.272;2023-06-22T14:59:46;14.32;;;7.07;;
41167;SDS011;26906;45.658;9.272;2023-06-22T15:02:13;13.15;;;6.07;;
41167;SDS011;26906;45.658;9.272;2023-06-22T15:04:39;10.90;;;5.88;;
41167;SDS011;26906;45.658;9.272;2023-06-22T15:07:05;11.23;;;6.00;;
41167;SDS011;26906;45.658;9.272;2023-06-22T15:09:32;13.70;;;5.90;;
41167;SDS011;26906;45.658;9.272;2023-06-22T15:11:58;13.10;;;6.38;;
41167;SDS011;26906;45.658;9.272;2023-06-22T15:14:26;11.90;;;5.72;;
41167;SDS011;26906;45.658;9.272;2023-06-22T15:16:53;14.45;;;5.95;;
41167;SDS011;26906;45.658;9.272;2023-06-22T15:19:18;9.38;;;6.13;;
41167;SDS011;26906;45.658;9.272;2023-06-22T15:21:44;10.80;;;6.18;;
41167;SDS011;26906;45.658;9.272;2023-06-22T15:24:10;11.32;;;6.22;;
41167;SDS011;26906;45.658;9.272;2023-06-22T15:26:36;14.45;;;6.32;;
41167;SDS011;26906;45.658;9.272;2023-06-22T15:29:02;17.40;;;6.60;;
41167;SDS011;26906;45.658;9.272;2023-06-22T15:31:28;13.55;;;5.68;;
41167;SDS011;26906;45.658;9.272;2023-06-22T15:33:54;15.48;;;6.03;;
41167;SDS011;26906;45.658;9.272;2023-06-22T15:36:20;9.68;;;5.93;;
41167;SDS011;26906;45.658;9.272;2023-06-22T15:38:46;14.55;;;5.80;;
41167;SDS011;26906;45.658;9.272;2023-06-22T15:41:12;12.57;;;5.40;;
41167;SDS011;26906;45.658;9.272;2023-06-22T15:43:38;15.93;;;6.00;;
41167;SDS011;26906;45.658;9.272;2023-06-22T15:46:03;12.20;;;6.22;;
41167;SDS011;26906;45.658;9.272;2023-06-22T15:48:29;13.80;;;6.05;;
41167;SDS011;26906;45.658;9.272;2023-06-22T15:50:55;11.55;;;6.50;;
41167;SDS011;26906;45.658;9.272;2023-06-22T15:53:21;14.50;;;6.95;;
41167;SDS011;26906;45.658;9.272;2023-06-22T15:55:47;16.92;;;7.10;;
41167;SDS011;26906;45.658;9.272;2023-06-22T15:58:12;14.75;;;6.80;;
41167;SDS011;26906;45.658;9.272;2023-06-22T16:00:39;13.63;;;7.03;;
41167;SDS011;26906;45.658;9.272;2023-06-22T16:03:05;11.90;;;7.15;;
41167;SDS011;26906;45.658;9.272;2023-06-22T16:05:31;14.82;;;6.65;;
41167;SDS011;26906;45.658;9.272;2023-06-22T16:07:56;14.55;;;7.18;;
41167;SDS011;26906;45.658;9.272;2023-06-22T16:10:22;13.43;;;6.50;;
41167;SDS011;26906;45.658;9.272;2023-06-22T16:12:48;17.80;;;6.60;;
41167;SDS011;26906;45.658;9.272;2023-06-22T16:15:14;15.20;;;7.30;;
41167;SDS011;26906;45.658;9.272;2023-06-22T16:17:42;10.45;;;7.07;;
41167;SDS011;26906;45.658;9.272;2023-06-22T16:20:07;9.35;;;6.60;;
41167;SDS011;26906;45.658;9.272;2023-06-22T16:22:35;8.38;;;6.57;;
41167;SDS011;26906;45.658;9.272;2023-06-22T16:25:01;12.48;;;6.85;;
41167;SDS011;26906;45.658;9.272;2023-06-22T16:27:28;11.55;;;7.40;;
41167;SDS011;26906;45.658;9.272;2023-06-22T16:29:56;15.75;;;7.43;;
41167;SDS011;26906;45.658;9.272;2023-06-22T16:32:22;10.30;;;6.32;;
41167;SDS011;26906;45.658;9.272;2023-06-22T16:34:48;13.65;;;6.70;;
41167;SDS011;26906;45.658;9.272;2023-06-22T16:37:13;8.40;;;6.90;;
41167;SDS011;26906;45.658;9.272;2023-06-22T16:39:39;11.63;;;6.10;;
41167;SDS011;26906;45.658;9.272;2023-06-22T16:42:05;12.98;;;7.05;;
41167;SDS011;26906;45.658;9.272;2023-06-22T16:44:30;16.27;;;6.70;;
41167;SDS011;26906;45.658;9.272;2023-06-22T16:46:59;14.43;;;7.05;;
41167;SDS011;26906;45.658;9.272;2023-06-22T16:49:27;11.95;;;6.90;;
41167;SDS011;26906;45.658;9.272;2023-06-22T16:51:52;18.42;;;7.05;;
41167;SDS011;26906;45.658;9.272;2023-06-22T16:54:18;10.60;;;6.43;;
41167;SDS011;26906;45.658;9.272;2023-06-22T16:56:44;14.18;;;6.38;;
41167;SDS011;26906;45.658;9.272;2023-06-22T16:59:11;15.98;;;6.50;;
41167;SDS011;26906;45.658;9.272;2023-06-22T17:01:39;8.65;;;6.38;;
41167;SDS011;26906;45.658;9.272;2023-06-22T17:04:28;11.05;;;6.63;;
41167;SDS011;26906;45.658;9.272;2023-06-22T17:07:01;13.52;;;6.65;;
41167;SDS011;26906;45.658;9.272;2023-06-22T17:09:44;13.82;;;6.65;;
41167;SDS011;26906;45.658;9.272;2023-06-22T17:12:15;15.93;;;6.93;;
41167;SDS011;26906;45.658;9.272;2023-06-22T17:14:43;16.65;;;6.47;;
41167;SDS011;26906;45.658;9.272;2023-06-22T17:17:15;13.35;;;6.15;;
41167;SDS011;26906;45.658;9.272;2023-06-22T17:19:42;8.70;;;6.30;;
41167;SDS011;26906;45.658;9.272;2023-06-22T17:22:13;12.25;;;5.88;;
41167;SDS011;26906;45.658;9.272;2023-06-22T17:24:40;17.65;;;6.97;;
41167;SDS011;26906;45.658;9.272;2023-06-22T17:27:06;14.50;;;6.60;;
41167;SDS011;26906;45.658;9.272;2023-06-22T17:29:32;15.20;;;7.38;;
41167;SDS011;26906;45.658;9.272;2023-06-22T17:31:58;9.15;;;6.85;;
41167;SDS011;26906;45.658;9.272;2023-06-22T17:34:27;9.80;;;7.20;;
41167;SDS011;26906;45.658;9.272;2023-06-22T17:36:54;12.13;;;7.05;;
41167;SDS011;26906;45.658;9.272;2023-06-22T17:39:21;14.48;;;7.30;;
41167;SDS011;26906;45.658;9.272;2023-06-22T17:41:49;14.60;;;7.32;;
41167;SDS011;26906;45.658;9.272;2023-06-22T17:44:22;14.30;;;7.05;;
41167;SDS011;26906;45.658;9.272;2023-06-22T17:46:54;12.02;;;7.15;;
41167;SDS011;26906;45.658;9.272;2023-06-22T17:49:22;14.32;;;7.35;;
41167;SDS011;26906;45.658;9.272;2023-06-22T17:51:51;12.13;;;7.30;;
41167;SDS011;26906;45.658;9.272;2023-06-22T17:54:18;14.98;;;7.25;;
41167;SDS011;26906;45.658;9.272;2023-06-22T17:56:50;12.43;;;6.85;;
41167;SDS011;26906;45.658;9.272;2023-06-22T17:59:19;13.70;;;7.45;;
41167;SDS011;26906;45.658;9.272;2023-06-22T18:01:45;13.13;;;7.90;;
41167;SDS011;26906;45.658;9.272;2023-06-22T18:04:11;13.73;;;7.30;;
41167;SDS011;26906;45.658;9.272;2023-06-22T18:06:44;12.98;;;8.48;;
41167;SDS011;26906;45.658;9.272;2023-06-22T18:09:12;14.32;;;7.60;;
41167;SDS011;26906;45.658;9.272;2023-06-22T18:11:45;7.40;;;6.57;;
41167;SDS011;26906;45.658;9.272;2023-06-22T18:14:16;11.13;;;7.15;;
41167;SDS011;26906;45.658;9.272;2023-06-22T18:16:43;14.73;;;6.68;;
41167;SDS011;26906;45.658;9.272;2023-06-22T18:19:10;12.02;;;6.78;;
41167;SDS011;26906;45.658;9.272;2023-06-22T18:21:37;12.23;;;7.82;;
41167;SDS011;26906;45.658;9.272;2023-06-22T18:24:05;11.55;;;7.57;;
41167;SDS011;26906;45.658;9.272;2023-06-22T18:26:30;13.38;;;7.57;;
41167;SDS011;26906;45.658;9.272;2023-06-22T18:28:57;14.65;;;7.68;;
41167;SDS011;26906;45.658;9.272;2023-06-22T18:31:24;15.30;;;7.75;;
41167;SDS011;26906;45.658;9.272;2023-06-22T18:33:54;13.88;;;7.55;;
41167;SDS011;26906;45.658;9.272;2023-06-22T18:36:24;12.52;;;7.30;;
41167;SDS011;26906;45.658;9.272;2023-06-22T18:38:55;17.08;;;7.07;;
41167;SDS011;26906;45.658;9.272;2023-06-22T18:41:37;10.70;;;6.53;;
41167;SDS011;26906;45.658;9.272;2023-06-22T18:44:11;9.70;;;6.20;;
41167;SDS011;26906;45.658;9.272;2023-06-22T18:46:52;11.15;;;6.53;;
41167;SDS011;26906;45.658;9.272;2023-06-22T18:49:22;13.15;;;6.63;;
41167;SDS011;26906;45.658;9.272;2023-06-22T18:54:24;12.02;;;6.70;;
41167;SDS011;26906;45.658;9.272;2023-06-22T19:15:41;11.25;;;6.18;;
41167;SDS011;26906;45.658;9.272;2023-06-22T19:18:14;11.73;;;6.25;;
41167;SDS011;26906;45.658;9.272;2023-06-22T19:20:47;12.30;;;6.47;;
41167;SDS011;26906;45.658;9.272;2023-06-22T19:23:24;9.80;;;5.68;;
41167;SDS011;26906;45.658;9.272;2023-06-22T19:26:02;9.43;;;5.90;;
41167;SDS011;26906;45.658;9.272;2023-06-22T19:28:33;10.45;;;5.68;;
41167;SDS011;26906;45.658;9.272;2023-06-22T19:31:00;10.68;;;6.10;;
41167;SDS011;26906;45.658;9.272;2023-06-22T19:33:27;12.77;;;6.40;;
41167;SDS011;26906;45.658;9.272;2023-06-22T19:35:54;11.90;;;6.60;;
41167;SDS011;26906;45.658;9.272;2023-06-22T19:38:23;13.68;;;6.68;;
41167;SDS011;26906;45.658;9.272;2023-06-22T19:40:50;11.60;;;6.13;;
41167;SDS011;26906;45.658;9.272;2023-06-22T19:43:16;12.40;;;6.05;;
41167;SDS011;26906;45.658;9.272;2023-06-22T19:45:44;12.93;;;6.50;;
41167;SDS011;26906;45.658;9.272;2023-06-22T19:48:14;11.93;;;6.35;;
41167;SDS011;26906;45.658;9.272;2023-06-22T19:50:41;9.25;;;6.13;;
41167;SDS011;26906;45.658;9.272;2023-06-22T19:53:08;15.73;;;7.20;;
41167;SDS011;26906;45.658;9.272;2023-06-22T19:55:43;12.93;;;6.60;;
41167;SDS011;26906;45.658;9.272;2023-06-22T19:58:12;11.77;;;6.70;;
41167;SDS011;26906;45.658;9.272;2023-06-22T20:00:40;13.48;;;6.88;;
41167;SDS011;26906;45.658;9.272;2023-06-22T20:03:10;13.55;;;6.53;;
41167;SDS011;26906;45.658;9.272;2023-06-22T20:05:41;14.52;;;6.53;;
41167;SDS011;26906;45.658;9.272;2023-06-22T20:08:11;15.73;;;7.00;;
41167;SDS011;26906;45.658;9.272;2023-06-22T20:10:38;10.80;;;7.07;;
41167;SDS011;26906;45.658;9.272;2023-06-22T20:13:14;11.27;;;6.82;;
41167;SDS011;26906;45.658;9.272;2023-06-22T20:15:47;13.27;;;7.18;;
41167;SDS011;26906;45.658;9.272;2023-06-22T20:18:14;9.05;;;7.00;;
41167;SDS011;26906;45.658;9.272;2023-06-22T20:20:44;12.13;;;6.20;;
41167;SDS011;26906;45.658;9.272;2023-06-22T20:23:34;11.63;;;7.05;;
41167;SDS011;26906;45.658;9.272;2023-06-22T20:25:59;15.07;;;6.63;;
41167;SDS011;26906;45.658;9.272;2023-06-22T20:28:25;14.77;;;6.45;;
41167;SDS011;26906;45.658;9.272;2023-06-22T20:31:04;8.45;;;6.05;;